Petersburg, Iowa
Current Conditions -  °F | °C
As of 6:35 AM on Sunday 21 Dec 2014 (Local Time) from KMXO Reporting Station
Haze Haze  
Wind Chill: 27°   Ceiling: 700
Heat Index: 36°   Visibility: 3mi
Dew Point: 36°   Wind: 13mph
Humidity: 100%   Direction: 160°SSE
Pressure: 30.08"   Gusts: NA
Location:  42.495°N, 91.1159°W
Report Text: KMXO 211235Z AUTO 16011KT 3SM BR OVC007 02/02 A3008 RMK AO2
Loading
Personal Weather Stations






























Interactive Weather Map New forecast layout! Learn more

10-Day Weather Forecast

Advertisements
Track Severe Weather on mobile